KFOK/FOK METAR and TAF weather

Enter ICAO airport designator
Station Type Date Time Source
KFOK METAR 2023/02/05 22:53 UTC NOAA

KFOK 052253Z 22005KT 10SM CLR 05/00 A3006 RMK AO2 SLP179 T00500000


Station Type Date Time Source
KFOK Decoded METAR 2023/02/05 22:53 UTC NOAA

THE GABRESKI AIRPORT, NY, United States (KFOK) 40-51N 072-37W 33M
Feb 05, 2023 - 05:53 PM EST / 2023.02.05 2253 UTC
Wind: from the SW (220 degrees) at 6 MPH (5 KT):0
Visibility: 10 mile(s):0
Sky conditions: clear
Temperature: 41.0 F (5.0 C)
Dew Point: 32.0 F (0.0 C)
Relative Humidity: 70%
Pressure (altimeter): 30.06 in. Hg (1017 hPa)
ob: KFOK 052253Z 22005KT 10SM CLR 05/00 A3006 RMK AO2 SLP179 T00500000
cycle: 23

Station Type Date Time Source
KFOK TAF UTC NOAA

Error!

Example: see airport list